createdAt,value
2022-11-16T00:02:06.876Z,100634.16
2022-11-16T00:04:36.579Z,100635.56
2022-11-16T00:07:04.347Z,100565.78
2022-11-16T00:09:32.502Z,100571.38
2022-11-16T00:12:17.046Z,100574.44
2022-11-16T00:15:02.800Z,100623.50
2022-11-16T00:17:45.388Z,100553.59
2022-11-16T00:20:30.205Z,100608.69
2022-11-16T00:23:00.228Z,100595.28
2022-11-16T00:25:53.587Z,100603.38
2022-11-16T00:28:29.390Z,100599.34
2022-11-16T00:31:09.213Z,100595.56
2022-11-16T00:33:55.063Z,100612.06
2022-11-16T00:36:46.620Z,100589.84
2022-11-16T00:39:25.017Z,100588.44
2022-11-16T00:42:01.982Z,100567.19
2022-11-16T00:44:47.588Z,100586.59
2022-11-16T00:47:16.400Z,100572.34
2022-11-16T00:49:43.027Z,100585.75
2022-11-16T00:52:09.692Z,100541.59
2022-11-16T00:54:39.118Z,100561.72
2022-11-16T00:57:05.649Z,100495.34
2022-11-16T00:59:36.168Z,100543.56
2022-11-16T01:02:03.656Z,100565.34
2022-11-16T01:04:31.185Z,100563.25
2022-11-16T01:06:57.895Z,100556.69
2022-11-16T01:09:26.702Z,100538.06
2022-11-16T01:12:12.753Z,100525.38
2022-11-16T01:14:43.724Z,100525.50
2022-11-16T01:17:11.642Z,100522.13
2022-11-16T01:19:39.555Z,100534.88
2022-11-16T01:22:06.734Z,100544.91
2022-11-16T01:24:39.538Z,100542.41
2022-11-16T01:27:09.038Z,100524.78
2022-11-16T01:29:35.714Z,100516.38
2022-11-16T01:32:02.235Z,100533.44
2022-11-16T01:34:28.839Z,100425.19
2022-11-16T01:36:55.399Z,100514.00
2022-11-16T01:39:21.901Z,100487.44
2022-11-16T01:41:48.621Z,100514.97
2022-11-16T01:44:15.112Z,100510.91
2022-11-16T01:46:47.961Z,100491.63
2022-11-16T01:49:19.528Z,100492.84
2022-11-16T01:51:52.903Z,100491.50
2022-11-16T01:54:21.812Z,100373.34
2022-11-16T01:56:56.574Z,100450.41
2022-11-16T01:59:26.227Z,100474.94
2022-11-16T02:01:52.919Z,100480.28
2022-11-16T02:04:19.630Z,100453.19
2022-11-16T02:07:17.273Z,100472.00
2022-11-16T02:09:58.344Z,100469.34
2022-11-16T02:12:40.286Z,100450.91
2022-11-16T02:15:34.846Z,100442.66
2022-11-16T02:18:04.310Z,100458.19
2022-11-16T02:20:51.791Z,100449.00
2022-11-16T02:23:33.725Z,100464.03
2022-11-16T02:26:09.566Z,100449.84
2022-11-16T02:29:04.170Z,100442.34
2022-11-16T02:31:41.721Z,100429.41
2022-11-16T02:34:11.444Z,100437.47
2022-11-16T02:36:41.627Z,100391.03
2022-11-16T02:39:14.861Z,100429.25
2022-11-16T02:41:44.178Z,100357.38
2022-11-16T02:44:40.292Z,100433.72
2022-11-16T02:47:11.803Z,100412.03
2022-11-16T02:49:45.444Z,100408.91
2022-11-16T02:52:22.850Z,100396.06
2022-11-16T02:54:49.659Z,100409.72
2022-11-16T02:57:26.332Z,100339.09
2022-11-16T03:00:01.334Z,100407.72
2022-11-16T03:02:42.753Z,100400.75
2022-11-16T03:05:18.288Z,100397.00
2022-11-16T03:07:50.987Z,100375.66
2022-11-16T03:10:52.084Z,100395.19
2022-11-16T03:13:23.401Z,100371.50
2022-11-16T03:15:50.905Z,100341.38
2022-11-16T03:18:22.393Z,100304.97
2022-11-16T03:20:52.920Z,100364.66
2022-11-16T03:23:20.561Z,100350.72
2022-11-16T03:25:51.706Z,100284.34
2022-11-16T03:28:44.135Z,100362.75
2022-11-16T03:31:21.456Z,100358.84
2022-11-16T03:33:53.920Z,100365.28
2022-11-16T03:36:31.988Z,100360.53
2022-11-16T03:39:04.432Z,100339.53
2022-11-16T03:41:33.195Z,100338.53
2022-11-16T03:44:00.610Z,100349.16
2022-11-16T03:46:27.240Z,100326.72
2022-11-16T03:49:01.390Z,100268.75
2022-11-16T03:51:30.570Z,100282.38
2022-11-16T03:54:05.947Z,100337.19
2022-11-16T03:56:35.653Z,100326.16
2022-11-16T03:59:02.241Z,100285.28
2022-11-16T04:01:29.045Z,100309.69
2022-11-16T04:04:01.759Z,100305.06
2022-11-16T04:06:47.021Z,100304.38
2022-11-16T04:09:35.215Z,100296.53
2022-11-16T04:12:20.359Z,100288.75
2022-11-16T04:15:19.558Z,100300.03
2022-11-16T04:18:04.451Z,100300.78
2022-11-16T04:20:52.750Z,100287.84
2022-11-16T04:23:40.711Z,100295.31
2022-11-16T04:26:10.442Z,100304.59
2022-11-16T04:28:38.061Z,100268.75
2022-11-16T04:31:24.228Z,100274.75
2022-11-16T04:34:11.123Z,100294.22
2022-11-16T04:36:56.655Z,100285.28
2022-11-16T04:39:23.190Z,100259.91
2022-11-16T04:42:14.310Z,100287.25
2022-11-16T04:44:59.401Z,100272.97
2022-11-16T04:47:30.916Z,100211.69
2022-11-16T04:49:57.507Z,100290.34
2022-11-16T04:52:24.222Z,100277.50
2022-11-16T04:54:53.772Z,100232.16
2022-11-16T04:57:20.644Z,100289.69
2022-11-16T04:59:47.303Z,100267.06
2022-11-16T05:02:15.226Z,100282.03
2022-11-16T05:04:46.548Z,100255.88
2022-11-16T05:07:17.281Z,100288.19
2022-11-16T05:09:46.551Z,100236.81
2022-11-16T05:12:16.054Z,100201.31
2022-11-16T05:14:46.992Z,100285.44
2022-11-16T05:17:14.695Z,100249.34
2022-11-16T05:19:59.895Z,100250.72
2022-11-16T05:22:26.745Z,100257.50
2022-11-16T05:24:53.707Z,100253.97
2022-11-16T05:27:22.988Z,100255.13
2022-11-16T05:29:50.794Z,100253.00
2022-11-16T05:32:19.343Z,100259.53
2022-11-16T05:34:46.646Z,100259.41
2022-11-16T05:37:21.153Z,100257.50
2022-11-16T05:39:50.896Z,100257.19
2022-11-16T05:42:17.574Z,100256.19
2022-11-16T05:44:44.760Z,100247.59
2022-11-16T05:47:11.435Z,100274.34
2022-11-16T05:49:38.125Z,100260.38
2022-11-16T05:52:04.700Z,100248.66
2022-11-16T05:54:31.390Z,100238.50
2022-11-16T05:57:00.764Z,100207.59
2022-11-16T05:59:29.341Z,100258.47
2022-11-16T06:01:55.991Z,100200.38
2022-11-16T06:04:24.813Z,100252.94
2022-11-16T06:06:52.071Z,100227.09
2022-11-16T06:09:21.987Z,100217.78
2022-11-16T06:11:48.869Z,100254.91
2022-11-16T06:14:15.723Z,100270.09
2022-11-16T06:16:42.360Z,100277.69
2022-11-16T06:19:11.143Z,100192.03
2022-11-16T06:21:37.687Z,100253.50
2022-11-16T06:24:09.635Z,100264.59
2022-11-16T06:26:37.070Z,100281.25
2022-11-16T06:29:04.183Z,100225.38
2022-11-16T06:31:34.045Z,100277.00
2022-11-16T06:34:00.645Z,100274.66
2022-11-16T06:36:27.216Z,100269.72
2022-11-16T06:38:53.969Z,100165.38
2022-11-16T06:41:21.849Z,100254.91
2022-11-16T06:43:48.453Z,100221.69
2022-11-16T06:46:23.933Z,100210.63
2022-11-16T06:48:50.896Z,100190.72
2022-11-16T06:51:21.659Z,100222.09
2022-11-16T06:53:54.014Z,100232.72
2022-11-16T06:56:23.598Z,100243.66
2022-11-16T06:58:53.271Z,100231.38
2022-11-16T07:01:20.752Z,100250.34
2022-11-16T07:03:55.367Z,100168.19
2022-11-16T07:06:27.930Z,100242.38
2022-11-16T07:08:54.557Z,100252.94
2022-11-16T07:11:21.477Z,100198.47
2022-11-16T07:13:49.387Z,100255.81
2022-11-16T07:16:16.035Z,100243.03
2022-11-16T07:18:42.686Z,100249.03
2022-11-16T07:21:15.979Z,100242.25
2022-11-16T07:23:43.456Z,100231.88
2022-11-16T07:26:13.707Z,100261.94
2022-11-16T07:28:45.022Z,100239.31
2022-11-16T07:31:16.014Z,100241.50
2022-11-16T07:33:45.540Z,100243.97
2022-11-16T07:36:14.429Z,100229.75
2022-11-16T07:38:47.603Z,100210.81
2022-11-16T07:41:17.094Z,100236.19
2022-11-16T07:43:47.200Z,100234.22
2022-11-16T07:49:16.056Z,100233.66
2022-11-16T07:51:43.358Z,100257.06
2022-11-16T07:54:16.438Z,100235.44
2022-11-16T07:56:43.800Z,100162.50
2022-11-16T07:59:17.424Z,100254.75
2022-11-16T08:01:46.508Z,100216.84
2022-11-16T08:04:13.269Z,100220.63
2022-11-16T08:06:41.980Z,100200.25
2022-11-16T08:09:09.483Z,100224.75
2022-11-16T08:11:36.101Z,100176.53
2022-11-16T08:14:07.262Z,100216.00
2022-11-16T08:16:36.420Z,100208.34
2022-11-16T08:19:05.786Z,100205.69
2022-11-16T08:21:33.013Z,100155.63
2022-11-16T08:24:01.289Z,100156.69
2022-11-16T08:26:27.991Z,100201.59
2022-11-16T08:28:56.605Z,100178.78
2022-11-16T08:31:26.291Z,100212.06
2022-11-16T08:33:53.039Z,100148.97
2022-11-16T08:36:20.587Z,100205.31
2022-11-16T08:38:49.429Z,100148.06
2022-11-16T08:41:17.348Z,100191.72
2022-11-16T08:43:47.135Z,100178.44
2022-11-16T08:46:18.272Z,100176.88
2022-11-16T08:48:46.096Z,100207.06
2022-11-16T08:51:27.120Z,100198.38
2022-11-16T08:54:00.007Z,100178.78
2022-11-16T08:56:27.530Z,100168.78
2022-11-16T08:58:58.667Z,100101.59
2022-11-16T09:01:28.709Z,100210.09
2022-11-16T09:03:56.866Z,100199.44
2022-11-16T09:06:24.816Z,100201.41
2022-11-16T09:08:51.992Z,100203.72
2022-11-16T09:11:22.019Z,100200.09
2022-11-16T09:13:50.472Z,100194.22
2022-11-16T09:16:17.950Z,100202.75
2022-11-16T09:18:49.941Z,100180.19
2022-11-16T09:21:28.263Z,100204.09
2022-11-16T09:23:56.173Z,100190.59
2022-11-16T09:26:24.588Z,100132.63
2022-11-16T09:29:03.417Z,100139.91
2022-11-16T09:31:34.288Z,100184.28
2022-11-16T09:34:01.377Z,100183.19
2022-11-16T09:36:29.054Z,100206.97
2022-11-16T09:39:23.639Z,100143.78
2022-11-16T09:42:16.252Z,100225.31
2022-11-16T09:45:06.420Z,100230.22
2022-11-16T09:47:51.825Z,100233.66
2022-11-16T09:50:51.817Z,100179.56
2022-11-16T09:53:34.212Z,100215.78
2022-11-16T09:56:10.841Z,100219.72
2022-11-16T09:59:06.270Z,100201.56
2022-11-16T10:02:02.208Z,100212.09
2022-11-16T10:04:46.560Z,100188.56
2022-11-16T10:07:16.899Z,100183.03
2022-11-16T10:09:47.002Z,100207.06
2022-11-16T10:12:40.333Z,100205.06
2022-11-16T10:15:15.504Z,100184.31
2022-11-16T10:17:59.949Z,100179.53
2022-11-16T10:20:54.472Z,100157.47
2022-11-16T10:23:39.617Z,100181.06
2022-11-16T10:26:21.611Z,100171.31
2022-11-16T10:28:54.031Z,100161.66
2022-11-16T10:31:21.600Z,100098.50
2022-11-16T10:33:52.377Z,100151.06
2022-11-16T10:36:27.081Z,100125.25
2022-11-16T10:38:57.114Z,100117.59
2022-11-16T10:41:43.262Z,100114.78
2022-11-16T10:44:21.913Z,100108.66
2022-11-16T10:47:05.632Z,100112.47
2022-11-16T10:49:40.882Z,100026.28
2022-11-16T10:52:10.453Z,100117.31
2022-11-16T10:54:42.874Z,100109.84
2022-11-16T10:57:15.982Z,100118.88
2022-11-16T10:59:47.492Z,100103.38
2022-11-16T11:02:33.684Z,100097.19
2022-11-16T11:05:17.471Z,100105.00
2022-11-16T11:08:02.186Z,100028.84
2022-11-16T11:10:32.282Z,100077.66
2022-11-16T11:13:11.283Z,100093.16
2022-11-16T11:15:40.508Z,100031.16
2022-11-16T11:18:16.104Z,100063.03
2022-11-16T11:20:46.768Z,100036.34
2022-11-16T11:23:22.302Z,100076.16
2022-11-16T11:26:05.455Z,100085.00
2022-11-16T11:28:34.863Z,100043.53
2022-11-16T11:31:17.142Z,100027.06
2022-11-16T11:33:57.355Z,100080.56
2022-11-16T11:36:38.547Z,100061.38
2022-11-16T11:39:26.603Z,100049.38
2022-11-16T11:42:07.374Z,100056.88
2022-11-16T11:44:45.526Z,100052.72
2022-11-16T11:50:21.881Z,100024.59
2022-11-16T11:53:19.467Z,100048.91
2022-11-16T11:55:46.195Z,100029.75
2022-11-16T11:58:19.525Z,100010.13
2022-11-16T12:01:24.900Z,100022.75
2022-11-16T12:04:44.175Z,99990.78
2022-11-16T12:07:36.903Z,100037.72
2022-11-16T12:10:22.584Z,100017.59
2022-11-16T12:12:56.110Z,100045.78
2022-11-16T12:15:55.366Z,100039.72
2022-11-16T12:18:36.953Z,100035.44
2022-11-16T12:21:27.032Z,100020.09
2022-11-16T12:24:17.472Z,100027.75
2022-11-16T12:27:12.379Z,100002.09
2022-11-16T12:29:54.281Z,99998.44
2022-11-16T12:33:02.469Z,100013.09
2022-11-16T12:35:53.172Z,99997.44
2022-11-16T12:38:38.055Z,99946.31
2022-11-16T12:41:31.223Z,100008.59
2022-11-16T12:44:00.776Z,99956.81
2022-11-16T12:46:55.705Z,100013.56
2022-11-16T12:49:40.041Z,99998.94
2022-11-16T12:52:45.574Z,99996.78
2022-11-16T12:55:26.278Z,99988.09
2022-11-16T12:58:21.956Z,99806.16
2022-11-16T13:00:54.699Z,99995.59
2022-11-16T13:03:54.309Z,99983.78
2022-11-16T13:06:32.780Z,99981.13
2022-11-16T13:09:28.702Z,99999.28
2022-11-16T13:11:58.579Z,99981.81
2022-11-16T13:14:38.084Z,99976.97
2022-11-16T13:17:06.763Z,99924.84
2022-11-16T13:19:39.915Z,99939.50
2022-11-16T13:22:33.019Z,99912.88
2022-11-16T13:25:20.957Z,99977.13
2022-11-16T13:27:58.426Z,99944.16
2022-11-16T13:30:33.620Z,99961.47
2022-11-16T13:33:40.744Z,99988.09
2022-11-16T13:36:32.460Z,99982.94
2022-11-16T13:38:59.370Z,99900.56
2022-11-16T13:41:50.603Z,99971.31
2022-11-16T13:44:22.976Z,99968.13
2022-11-16T13:47:04.073Z,99948.50
2022-11-16T13:49:35.035Z,99971.47
2022-11-16T13:52:23.118Z,99952.50
2022-11-16T13:55:22.121Z,99939.16
2022-11-16T13:57:59.373Z,99940.16
2022-11-16T14:00:33.576Z,99933.69
2022-11-16T14:03:16.430Z,99971.13
2022-11-16T14:05:48.251Z,99848.81
2022-11-16T14:08:26.777Z,99979.78
2022-11-16T14:10:53.281Z,99970.94
2022-11-16T14:13:39.981Z,99963.44
2022-11-16T14:16:21.857Z,99962.47
2022-11-16T14:19:00.326Z,99956.47
2022-11-16T14:21:58.055Z,99892.41
2022-11-16T14:24:49.012Z,99953.66
2022-11-16T14:27:49.392Z,99942.50
2022-11-16T14:30:35.805Z,99930.84
2022-11-16T14:33:02.867Z,99902.72
2022-11-16T14:35:39.049Z,99949.50
2022-11-16T14:38:42.026Z,99945.34
2022-11-16T14:41:21.179Z,99910.53
2022-11-16T14:43:53.089Z,99925.69
2022-11-16T14:46:27.145Z,99943.84
2022-11-16T14:49:01.041Z,99932.00
2022-11-16T14:51:31.419Z,99938.00
2022-11-16T14:54:19.348Z,99903.00
2022-11-16T14:57:20.474Z,99908.41
2022-11-16T15:00:07.031Z,99948.63
2022-11-16T15:02:35.433Z,99946.84
2022-11-16T15:05:05.215Z,99923.22
2022-11-16T15:07:33.961Z,99905.75
2022-11-16T15:10:06.333Z,99945.84
2022-11-16T15:12:41.723Z,99946.94
2022-11-16T15:15:27.992Z,99945.28
2022-11-16T15:18:12.206Z,99876.78
2022-11-16T15:20:52.576Z,99919.41
2022-11-16T15:23:21.599Z,99915.63
2022-11-16T15:25:54.571Z,99918.81
2022-11-16T15:28:34.970Z,99929.59
2022-11-16T15:31:06.081Z,99877.31
2022-11-16T15:33:40.472Z,99916.72
2022-11-16T15:36:37.762Z,99922.69
2022-11-16T15:39:06.316Z,99918.00
2022-11-16T15:41:34.198Z,99910.31
2022-11-16T15:44:15.052Z,99902.66
2022-11-16T15:46:47.324Z,99900.00
2022-11-16T15:49:41.049Z,99854.47
2022-11-16T15:52:07.752Z,99893.69
2022-11-16T15:55:02.040Z,99894.66
2022-11-16T15:57:31.248Z,99868.72
2022-11-16T16:00:02.277Z,99877.13
2022-11-16T16:02:32.920Z,99891.47
2022-11-16T16:05:04.993Z,99813.53
2022-11-16T16:07:40.012Z,99823.00
2022-11-16T16:10:30.119Z,99811.38
2022-11-16T16:13:00.541Z,99862.63
2022-11-16T16:15:43.204Z,99750.53
2022-11-16T16:18:41.305Z,99900.22
2022-11-16T16:21:09.620Z,99902.22
2022-11-16T16:24:10.689Z,99884.25
2022-11-16T16:26:39.317Z,99917.19
2022-11-16T16:29:09.975Z,99922.69
2022-11-16T16:31:42.776Z,99914.19
2022-11-16T16:34:13.874Z,99913.38
2022-11-16T16:36:40.468Z,99930.16
2022-11-16T16:39:07.329Z,99892.91
2022-11-16T16:41:36.253Z,99920.53
2022-11-16T16:44:09.572Z,99892.91
2022-11-16T16:46:38.438Z,99937.50
2022-11-16T16:49:08.181Z,99928.84
2022-11-16T16:51:37.094Z,99908.03
2022-11-16T16:54:03.940Z,99880.25
2022-11-16T16:56:38.229Z,99912.38
2022-11-16T16:59:19.804Z,99878.72
2022-11-16T17:01:47.262Z,99841.25
2022-11-16T17:04:37.274Z,99887.84
2022-11-16T17:07:06.352Z,99854.59
2022-11-16T17:09:33.893Z,99890.88
2022-11-16T17:12:00.649Z,99921.88
2022-11-16T17:14:29.367Z,99922.84
2022-11-16T17:16:56.275Z,99943.84
2022-11-16T17:19:26.125Z,99940.16
2022-11-16T17:21:56.551Z,99945.66
2022-11-16T17:24:24.174Z,99942.84
2022-11-16T17:26:54.030Z,99957.81
2022-11-16T17:29:23.438Z,99972.47
2022-11-16T17:31:50.645Z,99952.31
2022-11-16T17:34:19.375Z,99942.19
2022-11-16T17:36:46.418Z,99963.66
2022-11-16T17:39:23.500Z,99968.47
2022-11-16T17:41:52.088Z,99968.13
2022-11-16T17:44:22.100Z,99975.78
2022-11-16T17:46:52.627Z,99980.81
2022-11-16T17:49:19.476Z,99968.31
2022-11-16T17:51:47.972Z,99987.78
2022-11-16T17:54:17.965Z,99988.13
2022-11-16T17:56:44.546Z,99983.13
2022-11-16T17:59:14.553Z,99986.63
2022-11-16T18:01:42.104Z,99964.31
2022-11-16T18:04:08.852Z,99995.44
2022-11-16T18:06:36.780Z,99975.78
2022-11-16T18:09:06.841Z,99998.78
2022-11-16T18:11:36.176Z,99997.75
2022-11-16T18:14:06.256Z,99977.94
2022-11-16T18:16:33.775Z,99946.84
2022-11-16T18:19:03.004Z,99997.63
2022-11-16T18:21:30.533Z,99910.53
2022-11-16T18:23:59.463Z,100005.78
2022-11-16T18:26:32.227Z,99950.47
2022-11-16T18:29:09.170Z,100018.56
2022-11-16T18:31:35.974Z,100006.44
2022-11-16T18:34:05.380Z,99989.44
2022-11-16T18:36:32.627Z,100011.22
2022-11-16T18:38:59.326Z,100001.75
2022-11-16T18:41:29.063Z,100010.41
2022-11-16T18:43:58.576Z,100006.75
2022-11-16T18:46:30.729Z,99821.72
2022-11-16T18:48:58.105Z,100011.38
2022-11-16T18:51:28.452Z,99988.44
2022-11-16T18:53:55.657Z,99994.44
2022-11-16T18:56:24.576Z,100010.06
2022-11-16T18:58:53.229Z,99978.09
2022-11-16T19:01:26.111Z,99992.44
2022-11-16T19:03:54.855Z,99961.13
2022-11-16T19:06:22.590Z,100000.78
2022-11-16T19:09:03.671Z,99999.09
2022-11-16T19:11:30.486Z,99958.81
2022-11-16T19:14:09.480Z,100011.44
2022-11-16T19:16:43.369Z,100014.75
2022-11-16T19:19:22.205Z,100020.56
2022-11-16T19:21:48.956Z,100013.06
2022-11-16T19:24:17.194Z,100011.91
2022-11-16T19:26:44.588Z,100029.00
2022-11-16T19:29:11.386Z,99995.03
2022-11-16T19:31:41.259Z,100024.84
2022-11-16T19:34:10.984Z,100011.19
2022-11-16T19:36:37.941Z,100016.03
2022-11-16T19:39:08.991Z,99962.00
2022-11-16T19:41:39.667Z,99997.03
2022-11-16T19:44:06.333Z,99984.84
2022-11-16T19:46:36.744Z,99984.84
2022-11-16T19:49:03.773Z,100016.50
2022-11-16T19:51:32.965Z,100019.97
2022-11-16T19:54:01.574Z,100025.44
2022-11-16T19:56:28.383Z,100009.63
2022-11-16T19:58:59.564Z,99984.16
2022-11-16T20:01:31.070Z,100012.00
2022-11-16T20:04:05.167Z,100022.69
2022-11-16T20:06:35.293Z,100011.03
2022-11-16T20:09:11.056Z,99974.00
2022-11-16T20:11:45.285Z,100012.16
2022-11-16T20:14:15.768Z,100015.34
2022-11-16T20:16:49.456Z,100013.97
2022-11-16T20:19:29.545Z,100008.66
2022-11-16T20:21:59.671Z,100015.34
2022-11-16T20:24:26.569Z,100010.78
2022-11-16T20:26:56.335Z,99890.97
2022-11-16T20:29:25.217Z,100017.28
2022-11-16T20:31:51.836Z,100014.13
2022-11-16T20:34:22.321Z,99996.94
2022-11-16T20:36:51.029Z,100006.91
2022-11-16T20:39:20.205Z,100019.56
2022-11-16T20:41:50.191Z,99913.91
2022-11-16T20:44:26.355Z,99986.28
2022-11-16T20:46:55.788Z,99985.59
2022-11-16T20:49:26.054Z,100019.78
2022-11-16T20:51:58.645Z,100004.56
2022-11-16T20:54:29.121Z,99992.25
2022-11-16T20:57:01.194Z,99982.94
2022-11-16T20:59:29.336Z,99962.22
2022-11-16T21:01:57.682Z,100023.59
2022-11-16T21:04:26.295Z,100023.31
2022-11-16T21:06:59.405Z,100009.28
2022-11-16T21:09:26.621Z,100008.47
2022-11-16T21:12:12.170Z,100021.63
2022-11-16T21:14:40.310Z,100000.19
2022-11-16T21:17:07.714Z,99991.06
2022-11-16T21:19:34.503Z,99973.38
2022-11-16T21:22:01.226Z,99985.38
2022-11-16T21:24:35.599Z,99933.06
2022-11-16T21:27:02.334Z,99981.72
2022-11-16T21:29:31.242Z,99931.78
2022-11-16T21:31:58.486Z,99979.41
2022-11-16T21:34:28.011Z,99955.56
2022-11-16T21:36:54.755Z,99940.22
2022-11-16T21:39:21.617Z,99982.25
2022-11-16T21:41:48.932Z,99988.09
2022-11-16T21:44:20.589Z,99999.06
2022-11-16T21:46:57.857Z,99966.22
2022-11-16T21:49:26.840Z,99998.06
2022-11-16T21:51:53.982Z,99996.38
2022-11-16T21:54:21.546Z,99999.66
2022-11-16T21:56:49.485Z,99940.03
2022-11-16T21:59:19.534Z,100009.00
2022-11-16T22:02:01.817Z,99993.38
2022-11-16T22:04:47.228Z,99985.06
2022-11-16T22:07:38.754Z,100003.66
2022-11-16T22:10:16.050Z,99991.59
2022-11-16T22:12:45.253Z,100015.59
2022-11-16T22:15:14.806Z,100038.91
2022-11-16T22:17:45.399Z,99972.44
2022-11-16T22:20:13.539Z,100030.28
2022-11-16T22:22:40.794Z,100039.81
2022-11-16T22:25:14.222Z,100030.97
2022-11-16T22:28:13.528Z,100032.81
2022-11-16T22:30:36.303Z,100041.28
2022-11-16T22:33:03.522Z,100047.97
2022-11-16T22:35:32.344Z,100016.44
2022-11-16T22:37:59.814Z,100042.78
2022-11-16T22:40:30.500Z,100026.94
2022-11-16T22:42:59.059Z,99995.59
2022-11-16T22:45:26.349Z,100051.44
2022-11-16T22:47:55.015Z,100050.28
2022-11-16T22:50:24.242Z,100027.09
2022-11-16T22:52:53.209Z,100033.72
2022-11-16T22:55:22.036Z,100053.56
2022-11-16T22:57:51.973Z,100061.56
2022-11-16T23:00:24.563Z,100061.22
2022-11-16T23:02:53.032Z,100054.22
2022-11-16T23:05:20.898Z,100002.06
2022-11-16T23:11:04.166Z,100033.19
2022-11-16T23:14:20.410Z,100045.53
2022-11-16T23:16:45.576Z,100053.56
2022-11-16T23:19:37.105Z,100007.91
2022-11-16T23:22:25.534Z,99939.56
2022-11-16T23:25:10.873Z,100032.59
2022-11-16T23:27:59.425Z,100037.28
2022-11-16T23:30:26.383Z,100000.97
2022-11-16T23:32:53.452Z,100022.16
2022-11-16T23:35:20.855Z,99817.78
2022-11-16T23:38:01.482Z,100029.00
2022-11-16T23:40:34.194Z,99988.19
2022-11-16T23:43:23.075Z,100016.03
2022-11-16T23:45:50.689Z,100018.00
2022-11-16T23:48:22.700Z,100003.00
2022-11-16T23:50:49.276Z,99962.69
2022-11-16T23:53:16.006Z,99998.69
2022-11-16T23:55:42.555Z,100004.34
2022-11-16T23:58:16.649Z,100000.00
